sensor_id;sensor_type;location;lat;lon;timestamp;P1;durP1;ratioP1;P2;durP2;ratioP2
15393;SDS011;7795;47.986;11.868;2024-01-27T00:01:45;1.43;;;1.20;;
15393;SDS011;7795;47.986;11.868;2024-01-27T00:04:11;1.70;;;1.20;;
15393;SDS011;7795;47.986;11.868;2024-01-27T00:06:37;1.40;;;1.30;;
15393;SDS011;7795;47.986;11.868;2024-01-27T00:09:03;2.03;;;1.03;;
15393;SDS011;7795;47.986;11.868;2024-01-27T00:11:30;3.33;;;1.63;;
15393;SDS011;7795;47.986;11.868;2024-01-27T00:13:57;1.47;;;1.00;;
15393;SDS011;7795;47.986;11.868;2024-01-27T00:16:24;3.27;;;1.00;;
15393;SDS011;7795;47.986;11.868;2024-01-27T00:18:51;1.30;;;1.20;;
15393;SDS011;7795;47.986;11.868;2024-01-27T00:21:17;2.93;;;1.47;;
15393;SDS011;7795;47.986;11.868;2024-01-27T00:23:42;2.20;;;1.43;;
15393;SDS011;7795;47.986;11.868;2024-01-27T00:26:08;1.40;;;1.03;;
15393;SDS011;7795;47.986;11.868;2024-01-27T00:28:34;2.67;;;1.10;;
15393;SDS011;7795;47.986;11.868;2024-01-27T00:31:00;2.20;;;1.20;;
15393;SDS011;7795;47.986;11.868;2024-01-27T00:33:25;1.83;;;1.07;;
15393;SDS011;7795;47.986;11.868;2024-01-27T00:35:53;1.67;;;1.07;;
15393;SDS011;7795;47.986;11.868;2024-01-27T00:38:19;1.30;;;1.20;;
15393;SDS011;7795;47.986;11.868;2024-01-27T00:40:45;1.77;;;0.90;;
15393;SDS011;7795;47.986;11.868;2024-01-27T00:43:10;2.90;;;1.20;;
15393;SDS011;7795;47.986;11.868;2024-01-27T00:45:36;1.33;;;1.10;;
15393;SDS011;7795;47.986;11.868;2024-01-27T00:48:02;2.70;;;1.03;;
15393;SDS011;7795;47.986;11.868;2024-01-27T00:50:28;1.20;;;1.10;;
15393;SDS011;7795;47.986;11.868;2024-01-27T00:52:55;3.33;;;1.20;;
15393;SDS011;7795;47.986;11.868;2024-01-27T00:55:21;3.97;;;1.30;;
15393;SDS011;7795;47.986;11.868;2024-01-27T00:57:46;1.90;;;1.10;;
15393;SDS011;7795;47.986;11.868;2024-01-27T01:00:12;2.00;;;1.10;;
15393;SDS011;7795;47.986;11.868;2024-01-27T01:02:39;2.17;;;1.00;;
15393;SDS011;7795;47.986;11.868;2024-01-27T01:05:06;2.40;;;1.47;;
15393;SDS011;7795;47.986;11.868;2024-01-27T01:07:32;4.80;;;1.40;;
15393;SDS011;7795;47.986;11.868;2024-01-27T01:10:00;1.83;;;1.10;;
15393;SDS011;7795;47.986;11.868;2024-01-27T01:12:26;3.13;;;1.20;;
15393;SDS011;7795;47.986;11.868;2024-01-27T01:14:52;1.20;;;1.10;;
15393;SDS011;7795;47.986;11.868;2024-01-27T01:17:18;1.37;;;1.17;;
15393;SDS011;7795;47.986;11.868;2024-01-27T01:19:44;2.63;;;1.00;;
15393;SDS011;7795;47.986;11.868;2024-01-27T01:22:10;3.37;;;1.00;;
15393;SDS011;7795;47.986;11.868;2024-01-27T01:24:36;2.70;;;1.43;;
15393;SDS011;7795;47.986;11.868;2024-01-27T01:27:03;1.47;;;1.00;;
15393;SDS011;7795;47.986;11.868;2024-01-27T01:29:29;1.40;;;1.17;;
15393;SDS011;7795;47.986;11.868;2024-01-27T01:31:54;2.17;;;1.33;;
15393;SDS011;7795;47.986;11.868;2024-01-27T01:34:20;2.07;;;1.10;;
15393;SDS011;7795;47.986;11.868;2024-01-27T01:36:46;2.80;;;1.20;;
15393;SDS011;7795;47.986;11.868;2024-01-27T01:39:13;2.70;;;1.10;;
15393;SDS011;7795;47.986;11.868;2024-01-27T01:41:39;6.33;;;1.60;;
15393;SDS011;7795;47.986;11.868;2024-01-27T01:44:06;2.40;;;1.13;;
15393;SDS011;7795;47.986;11.868;2024-01-27T01:46:32;1.80;;;1.27;;
15393;SDS011;7795;47.986;11.868;2024-01-27T01:48:58;2.73;;;1.30;;
15393;SDS011;7795;47.986;11.868;2024-01-27T01:51:25;1.50;;;1.10;;
15393;SDS011;7795;47.986;11.868;2024-01-27T01:53:51;1.70;;;1.40;;
15393;SDS011;7795;47.986;11.868;2024-01-27T01:56:19;2.27;;;1.37;;
15393;SDS011;7795;47.986;11.868;2024-01-27T01:58:45;1.90;;;1.13;;
15393;SDS011;7795;47.986;11.868;2024-01-27T02:01:12;2.33;;;1.17;;
15393;SDS011;7795;47.986;11.868;2024-01-27T02:03:38;1.83;;;1.10;;
15393;SDS011;7795;47.986;11.868;2024-01-27T02:06:04;3.17;;;1.70;;
15393;SDS011;7795;47.986;11.868;2024-01-27T02:08:30;2.47;;;1.30;;
15393;SDS011;7795;47.986;11.868;2024-01-27T02:10:56;3.80;;;1.20;;
15393;SDS011;7795;47.986;11.868;2024-01-27T02:13:23;2.23;;;1.57;;
15393;SDS011;7795;47.986;11.868;2024-01-27T02:15:49;4.63;;;1.60;;
15393;SDS011;7795;47.986;11.868;2024-01-27T02:18:17;1.57;;;1.20;;
15393;SDS011;7795;47.986;11.868;2024-01-27T02:20:43;2.30;;;1.50;;
15393;SDS011;7795;47.986;11.868;2024-01-27T02:23:09;1.40;;;0.97;;
15393;SDS011;7795;47.986;11.868;2024-01-27T02:25:36;2.97;;;1.40;;
15393;SDS011;7795;47.986;11.868;2024-01-27T02:28:02;2.47;;;1.23;;
15393;SDS011;7795;47.986;11.868;2024-01-27T02:30:28;2.07;;;1.17;;
15393;SDS011;7795;47.986;11.868;2024-01-27T02:32:56;1.43;;;1.17;;
15393;SDS011;7795;47.986;11.868;2024-01-27T02:35:23;2.63;;;1.23;;
15393;SDS011;7795;47.986;11.868;2024-01-27T02:37:48;2.33;;;1.37;;
15393;SDS011;7795;47.986;11.868;2024-01-27T02:40:14;2.83;;;1.10;;
15393;SDS011;7795;47.986;11.868;2024-01-27T02:42:41;1.70;;;1.43;;
15393;SDS011;7795;47.986;11.868;2024-01-27T02:45:08;2.70;;;1.10;;
15393;SDS011;7795;47.986;11.868;2024-01-27T02:47:34;2.27;;;1.20;;
15393;SDS011;7795;47.986;11.868;2024-01-27T02:50:00;1.83;;;1.33;;
15393;SDS011;7795;47.986;11.868;2024-01-27T02:52:26;3.20;;;1.33;;
15393;SDS011;7795;47.986;11.868;2024-01-27T02:54:53;2.27;;;1.13;;
15393;SDS011;7795;47.986;11.868;2024-01-27T02:57:19;3.37;;;1.27;;
15393;SDS011;7795;47.986;11.868;2024-01-27T02:59:46;1.87;;;1.30;;
15393;SDS011;7795;47.986;11.868;2024-01-27T03:02:12;1.37;;;1.00;;
15393;SDS011;7795;47.986;11.868;2024-01-27T03:04:37;3.10;;;1.10;;
15393;SDS011;7795;47.986;11.868;2024-01-27T03:07:03;1.27;;;1.07;;
15393;SDS011;7795;47.986;11.868;2024-01-27T03:09:30;2.07;;;1.20;;
15393;SDS011;7795;47.986;11.868;2024-01-27T03:11:56;6.40;;;1.40;;
15393;SDS011;7795;47.986;11.868;2024-01-27T03:14:21;1.47;;;1.13;;
15393;SDS011;7795;47.986;11.868;2024-01-27T03:16:48;3.87;;;1.43;;
15393;SDS011;7795;47.986;11.868;2024-01-27T03:19:14;1.73;;;1.23;;
15393;SDS011;7795;47.986;11.868;2024-01-27T03:21:40;3.10;;;1.47;;
15393;SDS011;7795;47.986;11.868;2024-01-27T03:24:06;1.83;;;1.30;;
15393;SDS011;7795;47.986;11.868;2024-01-27T03:26:31;2.00;;;1.40;;
15393;SDS011;7795;47.986;11.868;2024-01-27T03:28:57;1.83;;;1.40;;
15393;SDS011;7795;47.986;11.868;2024-01-27T03:31:23;2.23;;;1.23;;
15393;SDS011;7795;47.986;11.868;2024-01-27T03:33:50;3.37;;;1.57;;
15393;SDS011;7795;47.986;11.868;2024-01-27T03:36:16;1.87;;;1.30;;
15393;SDS011;7795;47.986;11.868;2024-01-27T03:38:41;4.83;;;1.50;;
15393;SDS011;7795;47.986;11.868;2024-01-27T03:41:07;2.80;;;1.50;;
15393;SDS011;7795;47.986;11.868;2024-01-27T03:43:33;2.63;;;1.40;;
15393;SDS011;7795;47.986;11.868;2024-01-27T03:45:59;2.27;;;1.60;;
15393;SDS011;7795;47.986;11.868;2024-01-27T03:48:25;2.90;;;1.30;;
15393;SDS011;7795;47.986;11.868;2024-01-27T03:50:52;2.37;;;1.27;;
15393;SDS011;7795;47.986;11.868;2024-01-27T03:53:18;3.17;;;1.80;;
15393;SDS011;7795;47.986;11.868;2024-01-27T03:55:44;3.23;;;1.67;;
15393;SDS011;7795;47.986;11.868;2024-01-27T03:58:09;1.83;;;1.20;;
15393;SDS011;7795;47.986;11.868;2024-01-27T04:00:35;2.37;;;1.30;;
15393;SDS011;7795;47.986;11.868;2024-01-27T04:03:01;3.10;;;1.40;;
15393;SDS011;7795;47.986;11.868;2024-01-27T04:05:27;2.60;;;1.80;;
15393;SDS011;7795;47.986;11.868;2024-01-27T04:07:55;4.50;;;1.57;;
15393;SDS011;7795;47.986;11.868;2024-01-27T04:10:21;2.00;;;1.80;;
15393;SDS011;7795;47.986;11.868;2024-01-27T04:12:47;1.70;;;1.30;;
15393;SDS011;7795;47.986;11.868;2024-01-27T04:15:13;4.13;;;1.90;;
15393;SDS011;7795;47.986;11.868;2024-01-27T04:17:39;3.13;;;1.60;;
15393;SDS011;7795;47.986;11.868;2024-01-27T04:20:05;2.57;;;1.43;;
15393;SDS011;7795;47.986;11.868;2024-01-27T04:22:32;2.13;;;1.70;;
15393;SDS011;7795;47.986;11.868;2024-01-27T04:24:59;3.33;;;1.23;;
15393;SDS011;7795;47.986;11.868;2024-01-27T04:27:26;2.10;;;1.40;;
15393;SDS011;7795;47.986;11.868;2024-01-27T04:29:52;3.93;;;1.83;;
15393;SDS011;7795;47.986;11.868;2024-01-27T04:32:18;1.73;;;1.40;;
15393;SDS011;7795;47.986;11.868;2024-01-27T04:34:43;2.00;;;1.33;;
15393;SDS011;7795;47.986;11.868;2024-01-27T04:37:09;2.57;;;1.47;;
15393;SDS011;7795;47.986;11.868;2024-01-27T04:39:35;4.23;;;1.53;;
15393;SDS011;7795;47.986;11.868;2024-01-27T04:42:02;2.33;;;1.43;;
15393;SDS011;7795;47.986;11.868;2024-01-27T04:44:28;2.67;;;1.50;;
15393;SDS011;7795;47.986;11.868;2024-01-27T04:46:54;2.10;;;1.40;;
15393;SDS011;7795;47.986;11.868;2024-01-27T04:49:19;2.90;;;2.00;;
15393;SDS011;7795;47.986;11.868;2024-01-27T04:51:45;2.30;;;1.30;;
15393;SDS011;7795;47.986;11.868;2024-01-27T04:54:11;3.57;;;1.60;;
15393;SDS011;7795;47.986;11.868;2024-01-27T04:56:36;2.93;;;1.57;;
15393;SDS011;7795;47.986;11.868;2024-01-27T04:59:03;2.80;;;1.50;;
15393;SDS011;7795;47.986;11.868;2024-01-27T05:01:30;2.30;;;1.30;;
15393;SDS011;7795;47.986;11.868;2024-01-27T05:03:57;1.67;;;1.47;;
15393;SDS011;7795;47.986;11.868;2024-01-27T05:06:22;2.33;;;1.50;;
15393;SDS011;7795;47.986;11.868;2024-01-27T05:08:48;1.83;;;1.40;;
15393;SDS011;7795;47.986;11.868;2024-01-27T05:11:15;3.43;;;1.40;;
15393;SDS011;7795;47.986;11.868;2024-01-27T05:13:41;3.63;;;1.47;;
15393;SDS011;7795;47.986;11.868;2024-01-27T05:16:08;3.50;;;1.50;;
15393;SDS011;7795;47.986;11.868;2024-01-27T05:18:34;2.60;;;1.43;;
15393;SDS011;7795;47.986;11.868;2024-01-27T05:20:59;1.67;;;1.40;;
15393;SDS011;7795;47.986;11.868;2024-01-27T05:23:25;1.43;;;1.33;;
15393;SDS011;7795;47.986;11.868;2024-01-27T05:25:51;2.87;;;1.37;;
15393;SDS011;7795;47.986;11.868;2024-01-27T05:28:17;2.77;;;1.27;;
15393;SDS011;7795;47.986;11.868;2024-01-27T05:30:42;1.97;;;1.53;;
15393;SDS011;7795;47.986;11.868;2024-01-27T05:33:10;1.83;;;1.30;;
15393;SDS011;7795;47.986;11.868;2024-01-27T05:35:36;3.00;;;1.47;;
15393;SDS011;7795;47.986;11.868;2024-01-27T05:38:01;2.77;;;1.60;;
15393;SDS011;7795;47.986;11.868;2024-01-27T05:40:27;3.57;;;1.50;;
15393;SDS011;7795;47.986;11.868;2024-01-27T05:42:53;3.67;;;1.33;;
15393;SDS011;7795;47.986;11.868;2024-01-27T05:45:19;2.47;;;1.57;;
15393;SDS011;7795;47.986;11.868;2024-01-27T05:47:45;1.70;;;1.53;;
15393;SDS011;7795;47.986;11.868;2024-01-27T05:50:12;3.53;;;1.67;;
15393;SDS011;7795;47.986;11.868;2024-01-27T05:52:38;2.93;;;1.60;;
15393;SDS011;7795;47.986;11.868;2024-01-27T05:55:04;2.93;;;1.40;;
15393;SDS011;7795;47.986;11.868;2024-01-27T05:57:31;2.63;;;1.70;;
15393;SDS011;7795;47.986;11.868;2024-01-27T05:59:57;2.77;;;1.70;;
15393;SDS011;7795;47.986;11.868;2024-01-27T06:02:23;2.73;;;1.70;;
15393;SDS011;7795;47.986;11.868;2024-01-27T06:04:49;2.40;;;1.83;;
15393;SDS011;7795;47.986;11.868;2024-01-27T06:07:16;2.70;;;2.13;;
15393;SDS011;7795;47.986;11.868;2024-01-27T06:09:41;2.43;;;1.73;;
15393;SDS011;7795;47.986;11.868;2024-01-27T06:12:07;3.37;;;2.23;;
15393;SDS011;7795;47.986;11.868;2024-01-27T06:14:33;3.33;;;2.03;;
15393;SDS011;7795;47.986;11.868;2024-01-27T06:16:59;2.73;;;1.33;;
15393;SDS011;7795;47.986;11.868;2024-01-27T06:19:25;3.00;;;1.43;;
15393;SDS011;7795;47.986;11.868;2024-01-27T06:21:50;2.10;;;1.63;;
15393;SDS011;7795;47.986;11.868;2024-01-27T06:24:17;2.13;;;1.43;;
15393;SDS011;7795;47.986;11.868;2024-01-27T06:26:43;1.57;;;1.37;;
15393;SDS011;7795;47.986;11.868;2024-01-27T06:29:09;1.77;;;1.33;;
15393;SDS011;7795;47.986;11.868;2024-01-27T06:31:34;2.23;;;1.43;;
15393;SDS011;7795;47.986;11.868;2024-01-27T06:34:00;2.17;;;1.80;;
15393;SDS011;7795;47.986;11.868;2024-01-27T06:36:26;2.13;;;1.67;;
15393;SDS011;7795;47.986;11.868;2024-01-27T06:38:52;2.30;;;1.33;;
15393;SDS011;7795;47.986;11.868;2024-01-27T06:41:19;3.80;;;1.50;;
15393;SDS011;7795;47.986;11.868;2024-01-27T06:43:45;2.63;;;1.73;;
15393;SDS011;7795;47.986;11.868;2024-01-27T06:46:11;3.90;;;2.30;;
15393;SDS011;7795;47.986;11.868;2024-01-27T06:48:36;3.70;;;2.83;;
15393;SDS011;7795;47.986;11.868;2024-01-27T06:51:03;3.30;;;2.60;;
15393;SDS011;7795;47.986;11.868;2024-01-27T06:53:30;3.10;;;2.30;;
15393;SDS011;7795;47.986;11.868;2024-01-27T06:55:56;2.40;;;2.20;;
15393;SDS011;7795;47.986;11.868;2024-01-27T06:58:23;3.37;;;2.60;;
15393;SDS011;7795;47.986;11.868;2024-01-27T07:00:48;5.47;;;2.23;;
15393;SDS011;7795;47.986;11.868;2024-01-27T07:03:14;2.73;;;1.77;;
15393;SDS011;7795;47.986;11.868;2024-01-27T07:05:40;4.20;;;3.60;;
15393;SDS011;7795;47.986;11.868;2024-01-27T07:08:06;2.77;;;2.30;;
15393;SDS011;7795;47.986;11.868;2024-01-27T07:10:32;2.17;;;1.90;;
15393;SDS011;7795;47.986;11.868;2024-01-27T07:12:58;2.97;;;1.60;;
15393;SDS011;7795;47.986;11.868;2024-01-27T07:15:25;1.43;;;1.23;;
15393;SDS011;7795;47.986;11.868;2024-01-27T07:17:52;1.93;;;1.50;;
15393;SDS011;7795;47.986;11.868;2024-01-27T07:20:18;1.83;;;1.23;;
15393;SDS011;7795;47.986;11.868;2024-01-27T07:22:44;3.00;;;1.70;;
15393;SDS011;7795;47.986;11.868;2024-01-27T07:25:10;4.20;;;2.33;;
15393;SDS011;7795;47.986;11.868;2024-01-27T07:27:35;6.83;;;3.60;;
15393;SDS011;7795;47.986;11.868;2024-01-27T07:30:01;6.23;;;3.27;;
15393;SDS011;7795;47.986;11.868;2024-01-27T07:32:29;5.10;;;2.90;;
15393;SDS011;7795;47.986;11.868;2024-01-27T07:34:54;4.40;;;2.90;;
15393;SDS011;7795;47.986;11.868;2024-01-27T07:37:20;8.27;;;4.50;;
15393;SDS011;7795;47.986;11.868;2024-01-27T07:39:46;10.23;;;4.53;;
15393;SDS011;7795;47.986;11.868;2024-01-27T07:42:14;8.67;;;4.03;;
15393;SDS011;7795;47.986;11.868;2024-01-27T07:44:40;10.53;;;5.30;;
15393;SDS011;7795;47.986;11.868;2024-01-27T07:47:05;10.03;;;5.07;;
15393;SDS011;7795;47.986;11.868;2024-01-27T07:49:35;12.03;;;7.57;;
15393;SDS011;7795;47.986;11.868;2024-01-27T07:52:01;12.43;;;7.20;;
15393;SDS011;7795;47.986;11.868;2024-01-27T07:54:27;9.37;;;6.40;;
15393;SDS011;7795;47.986;11.868;2024-01-27T07:56:52;7.33;;;4.60;;
15393;SDS011;7795;47.986;11.868;2024-01-27T07:59:18;4.23;;;3.37;;
15393;SDS011;7795;47.986;11.868;2024-01-27T08:01:44;5.77;;;2.90;;
15393;SDS011;7795;47.986;11.868;2024-01-27T08:04:10;3.70;;;2.93;;
15393;SDS011;7795;47.986;11.868;2024-01-27T08:06:46;5.20;;;3.37;;
15393;SDS011;7795;47.986;11.868;2024-01-27T08:09:12;7.27;;;4.20;;
15393;SDS011;7795;47.986;11.868;2024-01-27T08:11:38;6.43;;;4.10;;
15393;SDS011;7795;47.986;11.868;2024-01-27T08:14:04;4.57;;;3.77;;
15393;SDS011;7795;47.986;11.868;2024-01-27T08:16:30;7.33;;;4.73;;
15393;SDS011;7795;47.986;11.868;2024-01-27T08:18:55;7.90;;;4.57;;
15393;SDS011;7795;47.986;11.868;2024-01-27T08:21:21;6.83;;;3.60;;
15393;SDS011;7795;47.986;11.868;2024-01-27T08:23:49;4.23;;;3.70;;
15393;SDS011;7795;47.986;11.868;2024-01-27T08:26:14;5.53;;;3.83;;
15393;SDS011;7795;47.986;11.868;2024-01-27T08:28:40;7.80;;;3.93;;
15393;SDS011;7795;47.986;11.868;2024-01-27T08:31:06;6.23;;;3.60;;
15393;SDS011;7795;47.986;11.868;2024-01-27T08:33:32;4.73;;;3.10;;
15393;SDS011;7795;47.986;11.868;2024-01-27T08:35:57;4.47;;;3.03;;
15393;SDS011;7795;47.986;11.868;2024-01-27T08:38:23;7.27;;;4.20;;
15393;SDS011;7795;47.986;11.868;2024-01-27T08:40:50;3.50;;;2.47;;
15393;SDS011;7795;47.986;11.868;2024-01-27T08:43:16;7.13;;;3.57;;
15393;SDS011;7795;47.986;11.868;2024-01-27T08:45:42;6.63;;;3.10;;
15393;SDS011;7795;47.986;11.868;2024-01-27T08:48:07;3.80;;;2.73;;
15393;SDS011;7795;47.986;11.868;2024-01-27T08:50:34;5.03;;;3.00;;
15393;SDS011;7795;47.986;11.868;2024-01-27T08:53:00;4.60;;;2.67;;
15393;SDS011;7795;47.986;11.868;2024-01-27T08:55:27;4.43;;;2.80;;
15393;SDS011;7795;47.986;11.868;2024-01-27T08:57:54;4.77;;;2.83;;
15393;SDS011;7795;47.986;11.868;2024-01-27T09:00:21;4.50;;;2.37;;
15393;SDS011;7795;47.986;11.868;2024-01-27T09:02:47;5.70;;;2.40;;
15393;SDS011;7795;47.986;11.868;2024-01-27T09:05:13;5.30;;;2.57;;
15393;SDS011;7795;47.986;11.868;2024-01-27T09:07:38;6.23;;;2.77;;
15393;SDS011;7795;47.986;11.868;2024-01-27T09:10:04;3.87;;;2.27;;
15393;SDS011;7795;47.986;11.868;2024-01-27T09:12:32;4.07;;;2.10;;
15393;SDS011;7795;47.986;11.868;2024-01-27T09:14:59;5.43;;;2.47;;
15393;SDS011;7795;47.986;11.868;2024-01-27T09:17:25;5.97;;;2.40;;
15393;SDS011;7795;47.986;11.868;2024-01-27T09:19:51;3.87;;;1.93;;
15393;SDS011;7795;47.986;11.868;2024-01-27T09:22:17;2.97;;;2.30;;
15393;SDS011;7795;47.986;11.868;2024-01-27T09:24:42;5.57;;;2.33;;
15393;SDS011;7795;47.986;11.868;2024-01-27T09:27:08;3.70;;;2.20;;
15393;SDS011;7795;47.986;11.868;2024-01-27T09:29:34;3.83;;;1.97;;
15393;SDS011;7795;47.986;11.868;2024-01-27T09:32:01;4.67;;;2.47;;
15393;SDS011;7795;47.986;11.868;2024-01-27T09:34:27;6.13;;;2.50;;
15393;SDS011;7795;47.986;11.868;2024-01-27T09:36:53;5.23;;;3.00;;
15393;SDS011;7795;47.986;11.868;2024-01-27T09:39:18;5.03;;;2.40;;
15393;SDS011;7795;47.986;11.868;2024-01-27T09:41:44;6.80;;;2.97;;
15393;SDS011;7795;47.986;11.868;2024-01-27T09:44:12;4.13;;;2.40;;
15393;SDS011;7795;47.986;11.868;2024-01-27T09:46:40;3.53;;;2.27;;
15393;SDS011;7795;47.986;11.868;2024-01-27T09:49:07;3.50;;;2.27;;
15393;SDS011;7795;47.986;11.868;2024-01-27T09:51:36;4.17;;;1.93;;
15393;SDS011;7795;47.986;11.868;2024-01-27T09:54:02;3.60;;;2.13;;
15393;SDS011;7795;47.986;11.868;2024-01-27T09:56:28;6.77;;;2.30;;
15393;SDS011;7795;47.986;11.868;2024-01-27T09:58:54;4.27;;;2.17;;
15393;SDS011;7795;47.986;11.868;2024-01-27T10:01:20;3.47;;;2.20;;
15393;SDS011;7795;47.986;11.868;2024-01-27T10:03:49;5.30;;;2.47;;
15393;SDS011;7795;47.986;11.868;2024-01-27T10:06:16;3.70;;;2.60;;
15393;SDS011;7795;47.986;11.868;2024-01-27T10:08:43;4.27;;;2.57;;
15393;SDS011;7795;47.986;11.868;2024-01-27T10:11:18;3.67;;;2.17;;
15393;SDS011;7795;47.986;11.868;2024-01-27T10:13:45;5.00;;;2.20;;
15393;SDS011;7795;47.986;11.868;2024-01-27T10:16:18;3.43;;;2.23;;
15393;SDS011;7795;47.986;11.868;2024-01-27T10:18:44;4.33;;;2.00;;
15393;SDS011;7795;47.986;11.868;2024-01-27T10:21:13;8.40;;;2.73;;
15393;SDS011;7795;47.986;11.868;2024-01-27T10:23:40;4.90;;;2.20;;
15393;SDS011;7795;47.986;11.868;2024-01-27T10:26:08;3.77;;;2.40;;
15393;SDS011;7795;47.986;11.868;2024-01-27T10:28:34;7.63;;;2.93;;
15393;SDS011;7795;47.986;11.868;2024-01-27T10:31:07;5.23;;;2.43;;
15393;SDS011;7795;47.986;11.868;2024-01-27T10:33:33;12.40;;;3.73;;
15393;SDS011;7795;47.986;11.868;2024-01-27T10:35:59;5.87;;;2.67;;
15393;SDS011;7795;47.986;11.868;2024-01-27T10:38:33;6.27;;;2.70;;
15393;SDS011;7795;47.986;11.868;2024-01-27T10:41:00;3.60;;;2.10;;
15393;SDS011;7795;47.986;11.868;2024-01-27T10:43:29;6.10;;;2.07;;
15393;SDS011;7795;47.986;11.868;2024-01-27T10:45:56;5.00;;;2.10;;
15393;SDS011;7795;47.986;11.868;2024-01-27T10:48:23;6.60;;;2.90;;
15393;SDS011;7795;47.986;11.868;2024-01-27T10:50:51;5.70;;;2.80;;
15393;SDS011;7795;47.986;11.868;2024-01-27T10:53:19;4.53;;;2.70;;
15393;SDS011;7795;47.986;11.868;2024-01-27T10:55:48;4.87;;;2.43;;
15393;SDS011;7795;47.986;11.868;2024-01-27T10:58:19;3.67;;;2.27;;
15393;SDS011;7795;47.986;11.868;2024-01-27T11:00:48;5.33;;;2.50;;
15393;SDS011;7795;47.986;11.868;2024-01-27T11:03:15;7.23;;;2.40;;
15393;SDS011;7795;47.986;11.868;2024-01-27T11:05:43;4.07;;;1.90;;
15393;SDS011;7795;47.986;11.868;2024-01-27T11:08:10;3.43;;;2.30;;
15393;SDS011;7795;47.986;11.868;2024-01-27T11:10:38;5.23;;;2.20;;
15393;SDS011;7795;47.986;11.868;2024-01-27T11:13:04;6.10;;;2.20;;
15393;SDS011;7795;47.986;11.868;2024-01-27T11:15:32;4.07;;;2.23;;
15393;SDS011;7795;47.986;11.868;2024-01-27T11:17:58;5.37;;;2.03;;
15393;SDS011;7795;47.986;11.868;2024-01-27T11:20:32;3.63;;;1.70;;
15393;SDS011;7795;47.986;11.868;2024-01-27T11:23:08;4.83;;;2.00;;
15393;SDS011;7795;47.986;11.868;2024-01-27T11:25:34;4.40;;;2.30;;
15393;SDS011;7795;47.986;11.868;2024-01-27T11:28:00;3.17;;;2.10;;
15393;SDS011;7795;47.986;11.868;2024-01-27T11:30:37;4.03;;;2.33;;
15393;SDS011;7795;47.986;11.868;2024-01-27T11:33:05;4.60;;;2.60;;
15393;SDS011;7795;47.986;11.868;2024-01-27T11:35:31;8.23;;;2.67;;
15393;SDS011;7795;47.986;11.868;2024-01-27T11:37:57;2.77;;;2.00;;
15393;SDS011;7795;47.986;11.868;2024-01-27T11:40:23;4.83;;;1.87;;
15393;SDS011;7795;47.986;11.868;2024-01-27T11:42:55;4.43;;;1.90;;
15393;SDS011;7795;47.986;11.868;2024-01-27T11:45:21;6.73;;;2.53;;
15393;SDS011;7795;47.986;11.868;2024-01-27T11:47:49;5.20;;;2.30;;
15393;SDS011;7795;47.986;11.868;2024-01-27T11:50:16;6.20;;;2.20;;
15393;SDS011;7795;47.986;11.868;2024-01-27T11:52:43;6.97;;;3.17;;
15393;SDS011;7795;47.986;11.868;2024-01-27T11:55:09;3.97;;;2.20;;
15393;SDS011;7795;47.986;11.868;2024-01-27T11:57:35;4.73;;;1.70;;
15393;SDS011;7795;47.986;11.868;2024-01-27T12:00:01;6.03;;;2.03;;
15393;SDS011;7795;47.986;11.868;2024-01-27T12:02:26;3.33;;;1.67;;
15393;SDS011;7795;47.986;11.868;2024-01-27T12:04:53;4.13;;;2.07;;
15393;SDS011;7795;47.986;11.868;2024-01-27T12:07:20;4.97;;;1.87;;
15393;SDS011;7795;47.986;11.868;2024-01-27T12:09:46;3.43;;;1.70;;
15393;SDS011;7795;47.986;11.868;2024-01-27T12:12:13;3.07;;;1.90;;
15393;SDS011;7795;47.986;11.868;2024-01-27T12:14:39;5.60;;;2.80;;
15393;SDS011;7795;47.986;11.868;2024-01-27T12:17:08;4.07;;;1.90;;
15393;SDS011;7795;47.986;11.868;2024-01-27T12:19:34;5.80;;;1.90;;
15393;SDS011;7795;47.986;11.868;2024-01-27T12:22:02;6.93;;;2.57;;
15393;SDS011;7795;47.986;11.868;2024-01-27T12:24:28;4.43;;;1.80;;
15393;SDS011;7795;47.986;11.868;2024-01-27T12:26:54;4.47;;;1.53;;
15393;SDS011;7795;47.986;11.868;2024-01-27T12:29:22;3.57;;;1.60;;
15393;SDS011;7795;47.986;11.868;2024-01-27T12:31:48;2.57;;;1.47;;
15393;SDS011;7795;47.986;11.868;2024-01-27T12:34:14;4.07;;;1.50;;
15393;SDS011;7795;47.986;11.868;2024-01-27T12:36:40;3.50;;;1.63;;
15393;SDS011;7795;47.986;11.868;2024-01-27T12:39:08;4.23;;;1.63;;
15393;SDS011;7795;47.986;11.868;2024-01-27T12:41:35;4.93;;;1.83;;
15393;SDS011;7795;47.986;11.868;2024-01-27T12:44:01;5.30;;;1.60;;
15393;SDS011;7795;47.986;11.868;2024-01-27T12:46:27;4.17;;;1.83;;
15393;SDS011;7795;47.986;11.868;2024-01-27T12:48:53;2.90;;;1.30;;
15393;SDS011;7795;47.986;11.868;2024-01-27T12:51:19;7.50;;;1.80;;
15393;SDS011;7795;47.986;11.868;2024-01-27T12:53:45;4.43;;;1.60;;
15393;SDS011;7795;47.986;11.868;2024-01-27T12:56:13;3.37;;;1.83;;
15393;SDS011;7795;47.986;11.868;2024-01-27T12:58:40;4.33;;;1.63;;
15393;SDS011;7795;47.986;11.868;2024-01-27T13:01:06;3.33;;;1.50;;
15393;SDS011;7795;47.986;11.868;2024-01-27T13:03:33;7.87;;;1.77;;
15393;SDS011;7795;47.986;11.868;2024-01-27T13:06:00;3.63;;;1.73;;
15393;SDS011;7795;47.986;11.868;2024-01-27T13:08:26;3.57;;;1.60;;
15393;SDS011;7795;47.986;11.868;2024-01-27T13:10:53;4.33;;;2.00;;
15393;SDS011;7795;47.986;11.868;2024-01-27T13:13:20;7.77;;;3.50;;
15393;SDS011;7795;47.986;11.868;2024-01-27T13:15:46;5.70;;;4.00;;
15393;SDS011;7795;47.986;11.868;2024-01-27T13:18:11;11.37;;;3.03;;
15393;SDS011;7795;47.986;11.868;2024-01-27T13:20:37;4.43;;;1.87;;
15393;SDS011;7795;47.986;11.868;2024-01-27T13:23:05;3.30;;;1.90;;
15393;SDS011;7795;47.986;11.868;2024-01-27T13:25:31;4.20;;;1.67;;
15393;SDS011;7795;47.986;11.868;2024-01-27T13:27:57;4.77;;;1.60;;
15393;SDS011;7795;47.986;11.868;2024-01-27T13:30:24;3.93;;;1.80;;
15393;SDS011;7795;47.986;11.868;2024-01-27T13:32:50;3.03;;;1.43;;
15393;SDS011;7795;47.986;11.868;2024-01-27T13:35:16;3.37;;;1.53;;
15393;SDS011;7795;47.986;11.868;2024-01-27T13:37:42;7.90;;;2.30;;
15393;SDS011;7795;47.986;11.868;2024-01-27T13:40:08;3.97;;;1.57;;
15393;SDS011;7795;47.986;11.868;2024-01-27T13:42:35;4.83;;;2.00;;
15393;SDS011;7795;47.986;11.868;2024-01-27T13:45:00;3.97;;;1.60;;
15393;SDS011;7795;47.986;11.868;2024-01-27T13:47:28;3.47;;;1.57;;
15393;SDS011;7795;47.986;11.868;2024-01-27T13:49:54;3.33;;;1.47;;
15393;SDS011;7795;47.986;11.868;2024-01-27T13:52:21;4.23;;;1.87;;
15393;SDS011;7795;47.986;11.868;2024-01-27T13:54:46;3.00;;;1.33;;
15393;SDS011;7795;47.986;11.868;2024-01-27T13:57:14;4.10;;;1.47;;
15393;SDS011;7795;47.986;11.868;2024-01-27T13:59:40;5.63;;;1.77;;
15393;SDS011;7795;47.986;11.868;2024-01-27T14:02:06;6.33;;;1.60;;
15393;SDS011;7795;47.986;11.868;2024-01-27T14:04:33;5.40;;;1.97;;
15393;SDS011;7795;47.986;11.868;2024-01-27T14:06:59;4.63;;;1.70;;
15393;SDS011;7795;47.986;11.868;2024-01-27T14:09:28;4.53;;;2.00;;
15393;SDS011;7795;47.986;11.868;2024-01-27T14:11:53;8.00;;;2.20;;
15393;SDS011;7795;47.986;11.868;2024-01-27T14:14:19;3.07;;;1.70;;
15393;SDS011;7795;47.986;11.868;2024-01-27T14:16:46;4.57;;;1.60;;
15393;SDS011;7795;47.986;11.868;2024-01-27T14:19:11;3.90;;;1.57;;
15393;SDS011;7795;47.986;11.868;2024-01-27T14:21:38;2.43;;;1.60;;
15393;SDS011;7795;47.986;11.868;2024-01-27T14:24:04;4.70;;;1.87;;
15393;SDS011;7795;47.986;11.868;2024-01-27T14:26:32;9.73;;;2.20;;
15393;SDS011;7795;47.986;11.868;2024-01-27T14:28:57;5.37;;;1.70;;
15393;SDS011;7795;47.986;11.868;2024-01-27T14:31:23;3.40;;;1.63;;
15393;SDS011;7795;47.986;11.868;2024-01-27T14:33:50;3.20;;;1.23;;
15393;SDS011;7795;47.986;11.868;2024-01-27T14:36:15;6.10;;;1.47;;
15393;SDS011;7795;47.986;11.868;2024-01-27T14:38:43;4.10;;;1.60;;
15393;SDS011;7795;47.986;11.868;2024-01-27T14:41:09;8.13;;;2.00;;
15393;SDS011;7795;47.986;11.868;2024-01-27T14:43:36;3.97;;;1.60;;